sensor_id;sensor_type;location;lat;lon;timestamp;temperature;humidity
9497;DHT22;4786;51.270;4.456;2023-08-30T00:00:49;13.60;99.90
9497;DHT22;4786;51.270;4.456;2023-08-30T00:03:15;13.50;99.90
9497;DHT22;4786;51.270;4.456;2023-08-30T00:05:42;13.50;99.90
9497;DHT22;4786;51.270;4.456;2023-08-30T00:08:09;13.50;99.90
9497;DHT22;4786;51.270;4.456;2023-08-30T00:10:34;13.50;99.90
9497;DHT22;4786;51.270;4.456;2023-08-30T00:13:01;13.50;99.90
9497;DHT22;4786;51.270;4.456;2023-08-30T00:15:27;13.50;99.90
9497;DHT22;4786;51.270;4.456;2023-08-30T00:17:53;13.40;99.90
9497;DHT22;4786;51.270;4.456;2023-08-30T00:20:20;13.40;99.90
9497;DHT22;4786;51.270;4.456;2023-08-30T00:22:48;13.40;99.90
9497;DHT22;4786;51.270;4.456;2023-08-30T00:25:14;13.40;99.90
9497;DHT22;4786;51.270;4.456;2023-08-30T00:27:40;13.40;99.90
9497;DHT22;4786;51.270;4.456;2023-08-30T00:30:06;13.30;99.90
9497;DHT22;4786;51.270;4.456;2023-08-30T00:32:33;13.30;99.90
9497;DHT22;4786;51.270;4.456;2023-08-30T00:35:00;13.20;99.90
9497;DHT22;4786;51.270;4.456;2023-08-30T00:37:26;13.20;99.90
9497;DHT22;4786;51.270;4.456;2023-08-30T00:39:52;13.20;99.90
9497;DHT22;4786;51.270;4.456;2023-08-30T00:42:18;13.10;99.90
9497;DHT22;4786;51.270;4.456;2023-08-30T00:44:44;13.00;99.90
9497;DHT22;4786;51.270;4.456;2023-08-30T00:47:10;13.00;99.90
9497;DHT22;4786;51.270;4.456;2023-08-30T00:49:37;12.90;99.90
9497;DHT22;4786;51.270;4.456;2023-08-30T00:52:07;12.90;99.90
9497;DHT22;4786;51.270;4.456;2023-08-30T00:54:34;12.90;99.90
9497;DHT22;4786;51.270;4.456;2023-08-30T00:57:00;13.00;99.90
9497;DHT22;4786;51.270;4.456;2023-08-30T00:59:27;13.00;99.90
9497;DHT22;4786;51.270;4.456;2023-08-30T01:01:55;13.00;99.90
9497;DHT22;4786;51.270;4.456;2023-08-30T01:04:20;13.00;99.90
9497;DHT22;4786;51.270;4.456;2023-08-30T01:06:47;13.00;99.90
9497;DHT22;4786;51.270;4.456;2023-08-30T01:09:14;13.10;99.90
9497;DHT22;4786;51.270;4.456;2023-08-30T01:14:26;13.10;99.90
9497;DHT22;4786;51.270;4.456;2023-08-30T01:16:55;13.10;99.90
9497;DHT22;4786;51.270;4.456;2023-08-30T01:22:08;13.20;99.90
9497;DHT22;4786;51.270;4.456;2023-08-30T01:27:22;13.30;99.90
9497;DHT22;4786;51.270;4.456;2023-08-30T01:29:50;13.30;99.90
9497;DHT22;4786;51.270;4.456;2023-08-30T01:32:20;13.30;99.90
9497;DHT22;4786;51.270;4.456;2023-08-30T01:34:48;13.30;99.90
9497;DHT22;4786;51.270;4.456;2023-08-30T01:37:16;13.40;99.90
9497;DHT22;4786;51.270;4.456;2023-08-30T01:39:43;13.40;99.90
9497;DHT22;4786;51.270;4.456;2023-08-30T01:42:09;13.40;99.90
9497;DHT22;4786;51.270;4.456;2023-08-30T01:44:35;13.50;99.90
9497;DHT22;4786;51.270;4.456;2023-08-30T01:47:02;13.50;99.90
9497;DHT22;4786;51.270;4.456;2023-08-30T01:49:30;13.50;99.90
9497;DHT22;4786;51.270;4.456;2023-08-30T01:52:00;13.60;99.90
9497;DHT22;4786;51.270;4.456;2023-08-30T01:54:28;13.60;99.90
9497;DHT22;4786;51.270;4.456;2023-08-30T01:56:57;13.60;99.90
9497;DHT22;4786;51.270;4.456;2023-08-30T01:59:24;13.70;99.90
9497;DHT22;4786;51.270;4.456;2023-08-30T02:01:51;13.70;99.90
9497;DHT22;4786;51.270;4.456;2023-08-30T02:04:17;13.70;99.90
9497;DHT22;4786;51.270;4.456;2023-08-30T02:06:50;13.70;99.90
9497;DHT22;4786;51.270;4.456;2023-08-30T02:09:58;13.70;99.90
9497;DHT22;4786;51.270;4.456;2023-08-30T02:12:31;13.80;99.90
9497;DHT22;4786;51.270;4.456;2023-08-30T02:14:58;13.80;99.90
9497;DHT22;4786;51.270;4.456;2023-08-30T02:17:26;13.90;99.90
9497;DHT22;4786;51.270;4.456;2023-08-30T02:19:52;13.90;99.90
9497;DHT22;4786;51.270;4.456;2023-08-30T02:22:19;13.80;99.90
9497;DHT22;4786;51.270;4.456;2023-08-30T02:24:45;13.90;99.90
9497;DHT22;4786;51.270;4.456;2023-08-30T02:27:10;13.70;99.90
9497;DHT22;4786;51.270;4.456;2023-08-30T02:29:36;13.70;99.90
9497;DHT22;4786;51.270;4.456;2023-08-30T02:32:02;13.70;99.90
9497;DHT22;4786;51.270;4.456;2023-08-30T02:34:28;13.60;99.90
9497;DHT22;4786;51.270;4.456;2023-08-30T02:36:54;13.60;99.90
9497;DHT22;4786;51.270;4.456;2023-08-30T02:39:21;13.60;99.90
9497;DHT22;4786;51.270;4.456;2023-08-30T02:41:46;13.60;99.90
9497;DHT22;4786;51.270;4.456;2023-08-30T02:44:13;13.60;99.90
9497;DHT22;4786;51.270;4.456;2023-08-30T02:46:38;13.60;99.90
9497;DHT22;4786;51.270;4.456;2023-08-30T02:49:04;13.60;99.90
9497;DHT22;4786;51.270;4.456;2023-08-30T02:51:31;13.60;99.90
9497;DHT22;4786;51.270;4.456;2023-08-30T02:53:57;13.70;99.90
9497;DHT22;4786;51.270;4.456;2023-08-30T02:56:23;13.70;99.90
9497;DHT22;4786;51.270;4.456;2023-08-30T02:58:50;13.70;99.90
9497;DHT22;4786;51.270;4.456;2023-08-30T03:01:16;13.70;99.90
9497;DHT22;4786;51.270;4.456;2023-08-30T03:03:42;13.80;99.90
9497;DHT22;4786;51.270;4.456;2023-08-30T03:06:08;13.60;99.90
9497;DHT22;4786;51.270;4.456;2023-08-30T03:08:33;13.60;99.90
9497;DHT22;4786;51.270;4.456;2023-08-30T03:11:09;13.80;99.90
9497;DHT22;4786;51.270;4.456;2023-08-30T03:13:36;13.90;99.90
9497;DHT22;4786;51.270;4.456;2023-08-30T03:16:09;13.90;99.90
9497;DHT22;4786;51.270;4.456;2023-08-30T03:18:36;14.00;99.90
9497;DHT22;4786;51.270;4.456;2023-08-30T03:21:02;14.10;99.90
9497;DHT22;4786;51.270;4.456;2023-08-30T03:23:29;14.20;99.90
9497;DHT22;4786;51.270;4.456;2023-08-30T03:25:56;14.20;99.90
9497;DHT22;4786;51.270;4.456;2023-08-30T03:28:22;14.20;99.90
9497;DHT22;4786;51.270;4.456;2023-08-30T03:30:48;14.20;99.90
9497;DHT22;4786;51.270;4.456;2023-08-30T03:33:13;14.20;99.90
9497;DHT22;4786;51.270;4.456;2023-08-30T03:35:39;14.30;99.90
9497;DHT22;4786;51.270;4.456;2023-08-30T03:38:05;14.30;99.90
9497;DHT22;4786;51.270;4.456;2023-08-30T03:40:31;14.30;99.90
9497;DHT22;4786;51.270;4.456;2023-08-30T03:42:57;14.30;99.90
9497;DHT22;4786;51.270;4.456;2023-08-30T03:45:23;14.30;99.90
9497;DHT22;4786;51.270;4.456;2023-08-30T03:47:48;14.20;99.90
9497;DHT22;4786;51.270;4.456;2023-08-30T03:50:15;14.20;99.90
9497;DHT22;4786;51.270;4.456;2023-08-30T03:52:41;14.30;99.90
9497;DHT22;4786;51.270;4.456;2023-08-30T03:55:07;14.30;99.90
9497;DHT22;4786;51.270;4.456;2023-08-30T03:57:33;14.30;99.90
9497;DHT22;4786;51.270;4.456;2023-08-30T04:00:00;14.30;99.90
9497;DHT22;4786;51.270;4.456;2023-08-30T04:02:25;14.40;99.90
9497;DHT22;4786;51.270;4.456;2023-08-30T04:04:51;14.40;99.90
9497;DHT22;4786;51.270;4.456;2023-08-30T04:07:17;14.40;99.90
9497;DHT22;4786;51.270;4.456;2023-08-30T04:09:43;14.40;99.90
9497;DHT22;4786;51.270;4.456;2023-08-30T04:12:09;14.30;99.90
9497;DHT22;4786;51.270;4.456;2023-08-30T04:14:35;14.40;99.90
9497;DHT22;4786;51.270;4.456;2023-08-30T04:17:01;14.40;99.90
9497;DHT22;4786;51.270;4.456;2023-08-30T04:19:27;14.50;99.90
9497;DHT22;4786;51.270;4.456;2023-08-30T04:21:53;14.50;99.90
9497;DHT22;4786;51.270;4.456;2023-08-30T04:24:19;14.50;99.90
9497;DHT22;4786;51.270;4.456;2023-08-30T04:26:46;14.50;99.90
9497;DHT22;4786;51.270;4.456;2023-08-30T04:29:15;14.60;99.90
9497;DHT22;4786;51.270;4.456;2023-08-30T04:31:43;14.60;99.90
9497;DHT22;4786;51.270;4.456;2023-08-30T04:34:09;14.60;99.90
9497;DHT22;4786;51.270;4.456;2023-08-30T04:36:35;14.70;99.90
9497;DHT22;4786;51.270;4.456;2023-08-30T04:39:01;14.80;99.90
9497;DHT22;4786;51.270;4.456;2023-08-30T04:41:27;14.80;99.90
9497;DHT22;4786;51.270;4.456;2023-08-30T04:43:53;14.80;99.90
9497;DHT22;4786;51.270;4.456;2023-08-30T04:46:19;14.80;99.90
9497;DHT22;4786;51.270;4.456;2023-08-30T04:48:46;14.80;99.90
9497;DHT22;4786;51.270;4.456;2023-08-30T04:51:11;14.80;99.90
9497;DHT22;4786;51.270;4.456;2023-08-30T04:53:37;14.80;99.90
9497;DHT22;4786;51.270;4.456;2023-08-30T04:56:11;14.80;99.90
9497;DHT22;4786;51.270;4.456;2023-08-30T04:58:37;14.80;99.90
9497;DHT22;4786;51.270;4.456;2023-08-30T05:01:03;14.80;99.90
9497;DHT22;4786;51.270;4.456;2023-08-30T05:03:28;14.80;99.90
9497;DHT22;4786;51.270;4.456;2023-08-30T05:05:54;14.80;99.90
9497;DHT22;4786;51.270;4.456;2023-08-30T05:08:20;14.80;99.90
9497;DHT22;4786;51.270;4.456;2023-08-30T05:10:46;14.70;99.90
9497;DHT22;4786;51.270;4.456;2023-08-30T05:13:15;14.70;99.90
9497;DHT22;4786;51.270;4.456;2023-08-30T05:15:41;14.70;99.90
9497;DHT22;4786;51.270;4.456;2023-08-30T05:18:08;14.80;99.90
9497;DHT22;4786;51.270;4.456;2023-08-30T05:20:34;14.80;99.90
9497;DHT22;4786;51.270;4.456;2023-08-30T05:23:00;14.70;99.90
9497;DHT22;4786;51.270;4.456;2023-08-30T05:25:26;14.70;99.90
9497;DHT22;4786;51.270;4.456;2023-08-30T05:27:52;14.70;99.90
9497;DHT22;4786;51.270;4.456;2023-08-30T05:30:19;14.80;99.90
9497;DHT22;4786;51.270;4.456;2023-08-30T05:32:45;14.70;99.90
9497;DHT22;4786;51.270;4.456;2023-08-30T05:35:11;14.70;99.90
9497;DHT22;4786;51.270;4.456;2023-08-30T05:37:37;14.70;99.90
9497;DHT22;4786;51.270;4.456;2023-08-30T05:40:03;14.70;99.90
9497;DHT22;4786;51.270;4.456;2023-08-30T05:42:29;14.70;99.90
9497;DHT22;4786;51.270;4.456;2023-08-30T05:44:55;14.70;99.90
9497;DHT22;4786;51.270;4.456;2023-08-30T05:47:21;14.80;99.90
9497;DHT22;4786;51.270;4.456;2023-08-30T05:49:47;14.80;99.90
9497;DHT22;4786;51.270;4.456;2023-08-30T05:52:15;14.70;99.90
9497;DHT22;4786;51.270;4.456;2023-08-30T05:55:00;14.70;99.90
9497;DHT22;4786;51.270;4.456;2023-08-30T05:57:26;14.60;99.90
9497;DHT22;4786;51.270;4.456;2023-08-30T05:59:54;14.60;99.90
9497;DHT22;4786;51.270;4.456;2023-08-30T06:02:20;14.60;99.90
9497;DHT22;4786;51.270;4.456;2023-08-30T06:04:46;14.60;99.90
9497;DHT22;4786;51.270;4.456;2023-08-30T06:07:11;14.60;99.90
9497;DHT22;4786;51.270;4.456;2023-08-30T06:09:38;14.60;99.90
9497;DHT22;4786;51.270;4.456;2023-08-30T06:12:04;14.70;99.90
9497;DHT22;4786;51.270;4.456;2023-08-30T06:14:30;14.70;99.90
9497;DHT22;4786;51.270;4.456;2023-08-30T06:16:56;14.70;99.90
9497;DHT22;4786;51.270;4.456;2023-08-30T06:19:22;14.70;99.90
9497;DHT22;4786;51.270;4.456;2023-08-30T06:21:48;14.70;99.90
9497;DHT22;4786;51.270;4.456;2023-08-30T06:24:14;14.70;99.90
9497;DHT22;4786;51.270;4.456;2023-08-30T06:26:40;14.70;99.90
9497;DHT22;4786;51.270;4.456;2023-08-30T06:29:05;14.70;99.90
9497;DHT22;4786;51.270;4.456;2023-08-30T06:31:31;14.80;99.90
9497;DHT22;4786;51.270;4.456;2023-08-30T06:33:57;14.70;99.90
9497;DHT22;4786;51.270;4.456;2023-08-30T06:36:23;14.60;99.90
9497;DHT22;4786;51.270;4.456;2023-08-30T06:38:50;14.70;99.90
9497;DHT22;4786;51.270;4.456;2023-08-30T06:41:16;14.60;99.90
9497;DHT22;4786;51.270;4.456;2023-08-30T06:43:42;14.70;99.90
9497;DHT22;4786;51.270;4.456;2023-08-30T06:46:07;14.70;99.90
9497;DHT22;4786;51.270;4.456;2023-08-30T06:48:33;14.70;99.90
9497;DHT22;4786;51.270;4.456;2023-08-30T06:50:59;14.70;99.90
9497;DHT22;4786;51.270;4.456;2023-08-30T06:53:29;14.80;99.90
9497;DHT22;4786;51.270;4.456;2023-08-30T06:55:59;14.80;99.90
9497;DHT22;4786;51.270;4.456;2023-08-30T06:58:25;14.80;99.90
9497;DHT22;4786;51.270;4.456;2023-08-30T07:00:51;14.80;99.90
9497;DHT22;4786;51.270;4.456;2023-08-30T07:03:17;14.90;99.90
9497;DHT22;4786;51.270;4.456;2023-08-30T07:05:43;14.90;99.90
9497;DHT22;4786;51.270;4.456;2023-08-30T07:08:09;14.90;99.90
9497;DHT22;4786;51.270;4.456;2023-08-30T07:10:35;14.90;99.90
9497;DHT22;4786;51.270;4.456;2023-08-30T07:13:00;15.00;99.90
9497;DHT22;4786;51.270;4.456;2023-08-30T07:15:26;15.00;99.90
9497;DHT22;4786;51.270;4.456;2023-08-30T07:17:52;15.00;99.90
9497;DHT22;4786;51.270;4.456;2023-08-30T07:20:17;15.10;99.90
9497;DHT22;4786;51.270;4.456;2023-08-30T07:22:43;15.10;99.90
9497;DHT22;4786;51.270;4.456;2023-08-30T07:25:09;15.10;99.90
9497;DHT22;4786;51.270;4.456;2023-08-30T07:27:36;15.10;99.90
9497;DHT22;4786;51.270;4.456;2023-08-30T07:30:02;15.10;99.90
9497;DHT22;4786;51.270;4.456;2023-08-30T07:32:29;15.20;99.90
9497;DHT22;4786;51.270;4.456;2023-08-30T07:34:56;15.20;99.90
9497;DHT22;4786;51.270;4.456;2023-08-30T07:37:22;15.30;99.90
9497;DHT22;4786;51.270;4.456;2023-08-30T07:39:48;15.40;99.90
9497;DHT22;4786;51.270;4.456;2023-08-30T07:42:14;15.40;99.90
9497;DHT22;4786;51.270;4.456;2023-08-30T07:44:40;15.40;99.90
9497;DHT22;4786;51.270;4.456;2023-08-30T07:47:06;15.50;99.90
9497;DHT22;4786;51.270;4.456;2023-08-30T07:49:32;15.50;99.90
9497;DHT22;4786;51.270;4.456;2023-08-30T07:51:58;15.60;99.90
9497;DHT22;4786;51.270;4.456;2023-08-30T07:54:25;15.60;99.90
9497;DHT22;4786;51.270;4.456;2023-08-30T07:56:51;15.50;99.90
9497;DHT22;4786;51.270;4.456;2023-08-30T07:59:17;15.60;99.90
9497;DHT22;4786;51.270;4.456;2023-08-30T08:01:43;15.70;99.90
9497;DHT22;4786;51.270;4.456;2023-08-30T08:04:09;15.70;99.90
9497;DHT22;4786;51.270;4.456;2023-08-30T08:06:34;15.80;99.90
9497;DHT22;4786;51.270;4.456;2023-08-30T08:09:00;16.00;99.90
9497;DHT22;4786;51.270;4.456;2023-08-30T08:11:27;16.00;99.90
9497;DHT22;4786;51.270;4.456;2023-08-30T08:13:52;16.10;99.90
9497;DHT22;4786;51.270;4.456;2023-08-30T08:16:18;16.30;99.90
9497;DHT22;4786;51.270;4.456;2023-08-30T08:18:45;16.40;99.90
9497;DHT22;4786;51.270;4.456;2023-08-30T08:21:11;16.40;99.90
9497;DHT22;4786;51.270;4.456;2023-08-30T08:23:36;16.60;99.90
9497;DHT22;4786;51.270;4.456;2023-08-30T08:26:02;16.70;99.90
9497;DHT22;4786;51.270;4.456;2023-08-30T08:28:29;16.80;99.90
9497;DHT22;4786;51.270;4.456;2023-08-30T08:30:55;16.80;99.90
9497;DHT22;4786;51.270;4.456;2023-08-30T08:33:21;16.80;99.90
9497;DHT22;4786;51.270;4.456;2023-08-30T08:35:49;17.00;99.90
9497;DHT22;4786;51.270;4.456;2023-08-30T08:38:14;16.90;99.90
9497;DHT22;4786;51.270;4.456;2023-08-30T08:40:40;17.00;99.90
9497;DHT22;4786;51.270;4.456;2023-08-30T08:43:06;17.10;99.90
9497;DHT22;4786;51.270;4.456;2023-08-30T08:45:35;17.00;99.90
9497;DHT22;4786;51.270;4.456;2023-08-30T08:48:03;17.10;99.90
9497;DHT22;4786;51.270;4.456;2023-08-30T08:50:29;17.20;99.90
9497;DHT22;4786;51.270;4.456;2023-08-30T08:52:56;17.10;99.90
9497;DHT22;4786;51.270;4.456;2023-08-30T08:55:22;17.20;99.90
9497;DHT22;4786;51.270;4.456;2023-08-30T08:57:49;17.20;99.90
9497;DHT22;4786;51.270;4.456;2023-08-30T09:00:15;17.30;99.90
9497;DHT22;4786;51.270;4.456;2023-08-30T09:02:42;17.30;99.90
9497;DHT22;4786;51.270;4.456;2023-08-30T09:05:09;17.30;99.90
9497;DHT22;4786;51.270;4.456;2023-08-30T09:07:36;17.30;99.90
9497;DHT22;4786;51.270;4.456;2023-08-30T09:10:03;17.30;99.90
9497;DHT22;4786;51.270;4.456;2023-08-30T09:12:33;17.30;99.90
9497;DHT22;4786;51.270;4.456;2023-08-30T09:14:59;17.30;99.90
9497;DHT22;4786;51.270;4.456;2023-08-30T09:17:35;17.50;99.90
9497;DHT22;4786;51.270;4.456;2023-08-30T09:20:20;17.80;99.90
9497;DHT22;4786;51.270;4.456;2023-08-30T09:22:46;18.00;99.90
9497;DHT22;4786;51.270;4.456;2023-08-30T09:25:24;18.20;99.90
9497;DHT22;4786;51.270;4.456;2023-08-30T09:27:50;18.50;99.90
9497;DHT22;4786;51.270;4.456;2023-08-30T09:30:22;18.80;99.90
9497;DHT22;4786;51.270;4.456;2023-08-30T09:32:48;19.10;99.90
9497;DHT22;4786;51.270;4.456;2023-08-30T09:35:14;19.30;99.90
9497;DHT22;4786;51.270;4.456;2023-08-30T09:37:40;19.70;99.90
9497;DHT22;4786;51.270;4.456;2023-08-30T09:40:07;19.90;99.90
9497;DHT22;4786;51.270;4.456;2023-08-30T09:42:33;20.10;99.90
9497;DHT22;4786;51.270;4.456;2023-08-30T09:44:59;20.10;99.90
9497;DHT22;4786;51.270;4.456;2023-08-30T09:47:26;20.10;99.90
9497;DHT22;4786;51.270;4.456;2023-08-30T09:49:54;20.10;99.90
9497;DHT22;4786;51.270;4.456;2023-08-30T09:52:23;19.90;99.90
9497;DHT22;4786;51.270;4.456;2023-08-30T09:54:50;19.90;99.90
9497;DHT22;4786;51.270;4.456;2023-08-30T09:57:17;19.90;99.90
9497;DHT22;4786;51.270;4.456;2023-08-30T09:59:45;20.10;99.90
9497;DHT22;4786;51.270;4.456;2023-08-30T10:02:11;20.20;99.90
9497;DHT22;4786;51.270;4.456;2023-08-30T10:04:40;20.50;99.90
9497;DHT22;4786;51.270;4.456;2023-08-30T10:07:07;20.80;99.90
9497;DHT22;4786;51.270;4.456;2023-08-30T10:09:33;21.20;99.90
9497;DHT22;4786;51.270;4.456;2023-08-30T10:12:00;21.40;99.90
9497;DHT22;4786;51.270;4.456;2023-08-30T10:14:27;21.30;99.90
9497;DHT22;4786;51.270;4.456;2023-08-30T10:17:01;21.40;99.90
9497;DHT22;4786;51.270;4.456;2023-08-30T10:19:29;21.20;99.90
9497;DHT22;4786;51.270;4.456;2023-08-30T10:22:05;21.30;99.90
9497;DHT22;4786;51.270;4.456;2023-08-30T10:24:44;21.10;99.90
9497;DHT22;4786;51.270;4.456;2023-08-30T10:27:13;21.20;99.90
9497;DHT22;4786;51.270;4.456;2023-08-30T10:29:41;21.30;99.90
9497;DHT22;4786;51.270;4.456;2023-08-30T10:32:08;21.40;99.90
9497;DHT22;4786;51.270;4.456;2023-08-30T10:34:35;21.30;99.90
9497;DHT22;4786;51.270;4.456;2023-08-30T10:37:11;21.00;99.90
9497;DHT22;4786;51.270;4.456;2023-08-30T10:39:40;20.80;99.90
9497;DHT22;4786;51.270;4.456;2023-08-30T10:42:13;20.70;99.90
9497;DHT22;4786;51.270;4.456;2023-08-30T10:47:24;20.40;99.90
9497;DHT22;4786;51.270;4.456;2023-08-30T10:49:54;20.20;99.90
9497;DHT22;4786;51.270;4.456;2023-08-30T10:52:23;20.20;99.90
9497;DHT22;4786;51.270;4.456;2023-08-30T10:54:50;20.20;99.90
9497;DHT22;4786;51.270;4.456;2023-08-30T10:57:24;20.30;99.90
9497;DHT22;4786;51.270;4.456;2023-08-30T11:00:07;20.60;99.90
9497;DHT22;4786;51.270;4.456;2023-08-30T11:02:38;20.90;99.90
9497;DHT22;4786;51.270;4.456;2023-08-30T11:05:06;21.00;99.90
9497;DHT22;4786;51.270;4.456;2023-08-30T11:07:32;20.90;99.90
9497;DHT22;4786;51.270;4.456;2023-08-30T11:09:58;21.00;99.90
9497;DHT22;4786;51.270;4.456;2023-08-30T11:12:24;21.20;99.90
9497;DHT22;4786;51.270;4.456;2023-08-30T11:14:55;21.10;99.90
9497;DHT22;4786;51.270;4.456;2023-08-30T11:17:26;21.10;99.90
9497;DHT22;4786;51.270;4.456;2023-08-30T11:20:07;21.00;99.90
9497;DHT22;4786;51.270;4.456;2023-08-30T11:22:44;21.00;99.90
9497;DHT22;4786;51.270;4.456;2023-08-30T11:25:11;20.80;99.90
9497;DHT22;4786;51.270;4.456;2023-08-30T11:27:38;20.80;99.90
9497;DHT22;4786;51.270;4.456;2023-08-30T11:30:06;20.70;99.90
9497;DHT22;4786;51.270;4.456;2023-08-30T11:32:40;20.60;99.90
9497;DHT22;4786;51.270;4.456;2023-08-30T11:35:07;20.60;99.90
9497;DHT22;4786;51.270;4.456;2023-08-30T11:37:33;20.50;99.90
9497;DHT22;4786;51.270;4.456;2023-08-30T11:40:02;20.40;99.90
9497;DHT22;4786;51.270;4.456;2023-08-30T11:42:30;20.60;99.90
9497;DHT22;4786;51.270;4.456;2023-08-30T11:44:58;20.80;99.90
9497;DHT22;4786;51.270;4.456;2023-08-30T11:47:24;21.00;99.90
9497;DHT22;4786;51.270;4.456;2023-08-30T11:49:55;21.20;99.90
9497;DHT22;4786;51.270;4.456;2023-08-30T11:52:23;21.40;99.90
9497;DHT22;4786;51.270;4.456;2023-08-30T11:54:50;21.70;99.90
9497;DHT22;4786;51.270;4.456;2023-08-30T11:57:16;22.00;99.90
9497;DHT22;4786;51.270;4.456;2023-08-30T11:59:43;22.10;99.90
9497;DHT22;4786;51.270;4.456;2023-08-30T12:02:09;22.30;99.90
9497;DHT22;4786;51.270;4.456;2023-08-30T12:04:43;22.50;99.90
9497;DHT22;4786;51.270;4.456;2023-08-30T12:07:20;22.40;99.90
9497;DHT22;4786;51.270;4.456;2023-08-30T12:09:46;22.30;99.90
9497;DHT22;4786;51.270;4.456;2023-08-30T12:12:12;22.10;99.90
9497;DHT22;4786;51.270;4.456;2023-08-30T12:14:38;21.90;99.90
9497;DHT22;4786;51.270;4.456;2023-08-30T12:17:05;21.60;99.90
9497;DHT22;4786;51.270;4.456;2023-08-30T12:19:33;21.50;99.90
9497;DHT22;4786;51.270;4.456;2023-08-30T12:22:06;21.20;99.90
9497;DHT22;4786;51.270;4.456;2023-08-30T12:24:43;21.00;99.90
9497;DHT22;4786;51.270;4.456;2023-08-30T12:27:09;20.80;99.90
9497;DHT22;4786;51.270;4.456;2023-08-30T12:29:35;20.60;99.90
9497;DHT22;4786;51.270;4.456;2023-08-30T12:32:01;20.60;99.90
9497;DHT22;4786;51.270;4.456;2023-08-30T12:34:28;20.80;99.90
9497;DHT22;4786;51.270;4.456;2023-08-30T12:36:54;21.00;99.90
9497;DHT22;4786;51.270;4.456;2023-08-30T12:39:20;21.30;99.90
9497;DHT22;4786;51.270;4.456;2023-08-30T12:41:47;21.40;99.90
9497;DHT22;4786;51.270;4.456;2023-08-30T12:44:12;21.50;99.90
9497;DHT22;4786;51.270;4.456;2023-08-30T12:46:38;21.70;99.90
9497;DHT22;4786;51.270;4.456;2023-08-30T12:49:04;21.80;99.90
9497;DHT22;4786;51.270;4.456;2023-08-30T12:51:30;22.00;99.90
9497;DHT22;4786;51.270;4.456;2023-08-30T12:53:56;22.00;99.90
9497;DHT22;4786;51.270;4.456;2023-08-30T12:56:22;22.00;99.90
9497;DHT22;4786;51.270;4.456;2023-08-30T12:58:47;21.90;99.90
9497;DHT22;4786;51.270;4.456;2023-08-30T13:01:13;21.80;99.90
9497;DHT22;4786;51.270;4.456;2023-08-30T13:03:39;21.70;99.90
9497;DHT22;4786;51.270;4.456;2023-08-30T13:06:06;21.60;99.90
9497;DHT22;4786;51.270;4.456;2023-08-30T13:08:32;21.60;99.90
9497;DHT22;4786;51.270;4.456;2023-08-30T13:11:00;21.70;99.90
9497;DHT22;4786;51.270;4.456;2023-08-30T13:13:25;21.90;99.90
9497;DHT22;4786;51.270;4.456;2023-08-30T13:15:52;22.00;99.90
9497;DHT22;4786;51.270;4.456;2023-08-30T13:18:17;21.80;99.90
9497;DHT22;4786;51.270;4.456;2023-08-30T13:20:43;21.60;99.90
9497;DHT22;4786;51.270;4.456;2023-08-30T13:23:10;21.50;99.90
9497;DHT22;4786;51.270;4.456;2023-08-30T13:25:41;21.50;99.90
9497;DHT22;4786;51.270;4.456;2023-08-30T13:28:07;21.60;99.90
9497;DHT22;4786;51.270;4.456;2023-08-30T13:30:34;21.70;99.90
9497;DHT22;4786;51.270;4.456;2023-08-30T13:33:00;21.80;99.90
9497;DHT22;4786;51.270;4.456;2023-08-30T13:35:26;22.00;99.90
9497;DHT22;4786;51.270;4.456;2023-08-30T13:37:51;22.10;99.90
9497;DHT22;4786;51.270;4.456;2023-08-30T13:40:17;22.20;99.90
9497;DHT22;4786;51.270;4.456;2023-08-30T13:42:43;22.20;99.90
9497;DHT22;4786;51.270;4.456;2023-08-30T13:45:09;22.40;99.90
9497;DHT22;4786;51.270;4.456;2023-08-30T13:47:35;22.60;99.90
9497;DHT22;4786;51.270;4.456;2023-08-30T13:50:02;22.60;99.90
9497;DHT22;4786;51.270;4.456;2023-08-30T13:52:29;22.70;99.90
9497;DHT22;4786;51.270;4.456;2023-08-30T13:54:55;22.80;99.90
9497;DHT22;4786;51.270;4.456;2023-08-30T13:57:21;22.90;99.90
9497;DHT22;4786;51.270;4.456;2023-08-30T13:59:47;22.90;99.90
9497;DHT22;4786;51.270;4.456;2023-08-30T14:02:13;23.00;99.90
9497;DHT22;4786;51.270;4.456;2023-08-30T14:04:39;23.00;99.90
9497;DHT22;4786;51.270;4.456;2023-08-30T14:07:05;22.90;99.90
9497;DHT22;4786;51.270;4.456;2023-08-30T14:09:31;22.70;99.90
9497;DHT22;4786;51.270;4.456;2023-08-30T14:11:56;22.50;99.90
9497;DHT22;4786;51.270;4.456;2023-08-30T14:14:22;22.20;99.90
9497;DHT22;4786;51.270;4.456;2023-08-30T14:16:48;21.90;99.90
9497;DHT22;4786;51.270;4.456;2023-08-30T14:19:15;21.60;99.90
9497;DHT22;4786;51.270;4.456;2023-08-30T14:21:41;21.20;99.90
9497;DHT22;4786;51.270;4.456;2023-08-30T14:24:07;21.00;99.90
9497;DHT22;4786;51.270;4.456;2023-08-30T14:26:33;20.90;99.90
9497;DHT22;4786;51.270;4.456;2023-08-30T14:28:58;20.80;99.90
9497;DHT22;4786;51.270;4.456;2023-08-30T14:31:25;20.70;99.90
9497;DHT22;4786;51.270;4.456;2023-08-30T14:33:54;20.70;99.90
9497;DHT22;4786;51.270;4.456;2023-08-30T14:36:22;20.60;99.90
9497;DHT22;4786;51.270;4.456;2023-08-30T14:38:49;20.60;99.90
9497;DHT22;4786;51.270;4.456;2023-08-30T14:41:15;20.40;99.90
9497;DHT22;4786;51.270;4.456;2023-08-30T14:43:42;20.50;99.90
9497;DHT22;4786;51.270;4.456;2023-08-30T14:46:08;20.40;99.90
9497;DHT22;4786;51.270;4.456;2023-08-30T14:48:34;20.30;99.90
9497;DHT22;4786;51.270;4.456;2023-08-30T14:51:02;20.30;99.90
9497;DHT22;4786;51.270;4.456;2023-08-30T14:53:28;20.40;99.90
9497;DHT22;4786;51.270;4.456;2023-08-30T14:55:55;20.40;99.90
9497;DHT22;4786;51.270;4.456;2023-08-30T14:58:21;20.40;99.90
9497;DHT22;4786;51.270;4.456;2023-08-30T15:00:48;20.30;99.90
9497;DHT22;4786;51.270;4.456;2023-08-30T15:03:14;20.10;99.90
9497;DHT22;4786;51.270;4.456;2023-08-30T15:05:40;20.00;99.90
9497;DHT22;4786;51.270;4.456;2023-08-30T15:08:06;20.00;99.90
9497;DHT22;4786;51.270;4.456;2023-08-30T15:10:32;19.90;99.90
9497;DHT22;4786;51.270;4.456;2023-08-30T15:12:58;19.90;99.90
9497;DHT22;4786;51.270;4.456;2023-08-30T15:15:24;20.00;99.90
9497;DHT22;4786;51.270;4.456;2023-08-30T15:17:49;20.10;99.90
9497;DHT22;4786;51.270;4.456;2023-08-30T15:20:15;19.90;99.90
9497;DHT22;4786;51.270;4.456;2023-08-30T15:22:41;20.10;99.90
9497;DHT22;4786;51.270;4.456;2023-08-30T15:25:07;20.20;99.90
9497;DHT22;4786;51.270;4.456;2023-08-30T15:27:34;20.20;99.90
9497;DHT22;4786;51.270;4.456;2023-08-30T15:30:00;20.30;99.90
9497;DHT22;4786;51.270;4.456;2023-08-30T15:32:27;20.30;99.90
9497;DHT22;4786;51.270;4.456;2023-08-30T15:34:53;20.30;99.90
9497;DHT22;4786;51.270;4.456;2023-08-30T15:37:19;20.40;99.90
9497;DHT22;4786;51.270;4.456;2023-08-30T15:39:45;20.50;99.90
9497;DHT22;4786;51.270;4.456;2023-08-30T15:42:11;20.50;99.90
9497;DHT22;4786;51.270;4.456;2023-08-30T15:44:37;20.40;99.90
9497;DHT22;4786;51.270;4.456;2023-08-30T15:47:03;20.30;99.90
9497;DHT22;4786;51.270;4.456;2023-08-30T15:49:29;20.20;99.90
9497;DHT22;4786;51.270;4.456;2023-08-30T15:51:55;19.80;99.90
9497;DHT22;4786;51.270;4.456;2023-08-30T15:54:21;20.00;99.90
9497;DHT22;4786;51.270;4.456;2023-08-30T15:56:47;20.00;99.90
9497;DHT22;4786;51.270;4.456;2023-08-30T15:59:13;20.00;99.90
9497;DHT22;4786;51.270;4.456;2023-08-30T16:01:39;20.00;99.90
9497;DHT22;4786;51.270;4.456;2023-08-30T16:04:05;19.90;99.90
9497;DHT22;4786;51.270;4.456;2023-08-30T16:06:31;19.80;99.90
9497;DHT22;4786;51.270;4.456;2023-08-30T16:08:57;19.80;99.90
9497;DHT22;4786;51.270;4.456;2023-08-30T16:11:23;19.70;99.90